Time;durP1;ratioP1;P1;durP2;ratioP2;P2;SDS_P1;SDS_P2;PMS_P1;PMS_P2;Temp;Humidity;BMP_temperature;BMP_pressure;BME280_temperature;BME280_humidity;BME280_pressure;Samples;Min_cycle;Max_cycle;Signal;HPM_P1;HPM_P2
2022/09/29 00:00:53;;;;;;;9.70;4.80;;;;;;;;;;5027686;28;20037;-65
2022/09/29 00:03:20;;;;;;;8.02;4.90;;;;;;;;;;5027084;28;20041;-65
2022/09/29 00:05:50;;;;;;;9.30;4.85;;;;;;;;;;5031651;28;20068;-65
2022/09/29 00:08:16;;;;;;;9.27;5.32;;;;;;;;;;5048546;28;20028;-65
2022/09/29 00:10:42;;;;;;;11.77;5.22;;;;;;;;;;5066786;28;20039;-66
2022/09/29 00:13:07;;;;;;;9.35;4.80;;;;;;;;;;5066442;28;20036;-66
2022/09/29 00:15:32;;;;;;;11.15;5.07;;;;;;;;;;5066865;28;20254;-65
2022/09/29 00:17:58;;;;;;;10.35;4.40;;;;;;;;;;5066620;28;20036;-65
2022/09/29 00:20:23;;;;;;;9.07;4.97;;;;;;;;;;5049643;28;20082;-65
2022/09/29 00:22:50;;;;;;;15.20;5.82;;;;;;;;;;5046712;28;20636;-65
2022/09/29 00:25:16;;;;;;;9.80;4.57;;;;;;;;;;5046185;28;20055;-65
2022/09/29 00:27:42;;;;;;;8.75;4.93;;;;;;;;;;5028856;28;20036;-65
2022/09/29 00:30:07;;;;;;;9.60;4.82;;;;;;;;;;5046194;28;20552;-65
2022/09/29 00:32:33;;;;;;;9.38;4.95;;;;;;;;;;5046412;28;20031;-66
2022/09/29 00:34:58;;;;;;;9.90;4.85;;;;;;;;;;5046789;28;20025;-65
2022/09/29 00:37:23;;;;;;;8.38;4.63;;;;;;;;;;5046514;28;20033;-66
2022/09/29 00:39:49;;;;;;;10.15;5.90;;;;;;;;;;5045877;28;20124;-65
2022/09/29 00:42:18;;;;;;;9.07;5.47;;;;;;;;;;5046348;28;20078;-66
2022/09/29 00:45:13;;;;;;;9.82;5.28;;;;;;;;;;5046252;28;20033;-65
2022/09/29 00:47:41;;;;;;;17.50;5.35;;;;;;;;;;5020725;28;20043;-65
2022/09/29 00:50:32;;;;;;;14.63;5.20;;;;;;;;;;5047065;28;20113;-66
2022/09/29 00:53:01;;;;;;;8.88;4.60;;;;;;;;;;5046639;28;20037;-65
2022/09/29 00:55:35;;;;;;;10.20;4.45;;;;;;;;;;5036765;28;20504;-65
2022/09/29 00:58:07;;;;;;;8.80;4.90;;;;;;;;;;5048203;28;20040;-65
2022/09/29 01:00:33;;;;;;;10.27;4.93;;;;;;;;;;5046276;28;20402;-65
2022/09/29 01:03:07;;;;;;;18.80;4.90;;;;;;;;;;5046064;28;20576;-66
2022/09/29 01:05:38;;;;;;;9.23;4.47;;;;;;;;;;5028466;28;20025;-66
2022/09/29 01:08:20;;;;;;;7.75;4.50;;;;;;;;;;5046477;28;20029;-65
2022/09/29 01:10:47;;;;;;;13.90;5.27;;;;;;;;;;5046117;28;20041;-65
2022/09/29 01:13:13;;;;;;;9.35;4.70;;;;;;;;;;5046068;28;20319;-65
2022/09/29 01:15:39;;;;;;;16.13;5.30;;;;;;;;;;5046298;28;20720;-65
2022/09/29 01:18:05;;;;;;;7.55;4.50;;;;;;;;;;5048101;28;20033;-66
2022/09/29 01:20:33;;;;;;;10.73;4.85;;;;;;;;;;5042502;28;20021;-65
2022/09/29 01:23:35;;;;;;;17.40;5.28;;;;;;;;;;5070178;28;20038;-66
2022/09/29 01:26:36;;;;;;;6.78;4.32;;;;;;;;;;5069769;28;20619;-65
2022/09/29 01:29:20;;;;;;;8.20;4.72;;;;;;;;;;5069502;28;20106;-65
2022/09/29 01:31:56;;;;;;;7.78;3.83;;;;;;;;;;5070229;28;20040;-65
2022/09/29 01:34:48;;;;;;;8.85;4.72;;;;;;;;;;5069357;28;20037;-65
2022/09/29 01:37:31;;;;;;;9.68;4.72;;;;;;;;;;5069921;28;20048;-65
2022/09/29 01:40:13;;;;;;;8.93;4.43;;;;;;;;;;5056639;28;20033;-65
2022/09/29 01:42:43;;;;;;;7.65;4.50;;;;;;;;;;5049536;28;20742;-65
2022/09/29 01:45:20;;;;;;;8.88;4.45;;;;;;;;;;5050460;28;20048;-65
2022/09/29 01:47:51;;;;;;;8.05;4.20;;;;;;;;;;5033531;28;20037;-65
2022/09/29 01:50:28;;;;;;;8.10;4.25;;;;;;;;;;5029213;28;20030;-65
2022/09/29 01:53:00;;;;;;;16.05;5.10;;;;;;;;;;5029897;28;20116;-66
2022/09/29 01:55:29;;;;;;;13.32;4.68;;;;;;;;;;5029534;28;20737;-65
2022/09/29 01:58:11;;;;;;;11.68;5.03;;;;;;;;;;5029253;28;20135;-66
2022/09/29 02:00:42;;;;;;;12.10;4.10;;;;;;;;;;5029763;28;20033;-65
2022/09/29 02:03:17;;;;;;;8.70;4.53;;;;;;;;;;5010706;28;20993;-65
2022/09/29 02:05:53;;;;;;;8.43;4.15;;;;;;;;;;5029054;28;20037;-65
2022/09/29 02:08:31;;;;;;;8.63;4.28;;;;;;;;;;5028810;28;20034;-65
2022/09/29 02:11:02;;;;;;;10.73;4.80;;;;;;;;;;5011554;28;20440;-66
2022/09/29 02:13:30;;;;;;;7.45;4.28;;;;;;;;;;5010781;28;20145;-65
2022/09/29 02:15:58;;;;;;;6.95;4.32;;;;;;;;;;5028721;28;20041;-65
2022/09/29 02:18:31;;;;;;;7.35;4.45;;;;;;;;;;5027990;28;20040;-65
2022/09/29 02:20:56;;;;;;;7.60;4.50;;;;;;;;;;5011810;28;20040;-65
2022/09/29 02:23:22;;;;;;;8.18;4.55;;;;;;;;;;5042663;28;20025;-65
2022/09/29 02:25:49;;;;;;;10.10;5.22;;;;;;;;;;5049348;28;20052;-66
2022/09/29 02:28:16;;;;;;;7.40;4.03;;;;;;;;;;5048708;28;20107;-65
2022/09/29 02:30:41;;;;;;;10.20;4.60;;;;;;;;;;5047993;28;20112;-65
2022/09/29 02:33:20;;;;;;;9.15;4.68;;;;;;;;;;5048959;28;20140;-65
2022/09/29 02:36:18;;;;;;;13.52;5.20;;;;;;;;;;5047456;28;20057;-65
2022/09/29 02:38:59;;;;;;;7.40;4.63;;;;;;;;;;5047707;28;20517;-65
2022/09/29 02:41:51;;;;;;;7.00;4.05;;;;;;;;;;5031096;28;20028;-65
2022/09/29 02:44:23;;;;;;;7.93;4.32;;;;;;;;;;5042562;28;20493;-65
2022/09/29 02:46:57;;;;;;;8.38;4.30;;;;;;;;;;5048896;28;20486;-65
2022/09/29 02:49:32;;;;;;;9.23;4.88;;;;;;;;;;5048050;28;20407;-65
2022/09/29 02:52:27;;;;;;;8.68;4.60;;;;;;;;;;5048400;28;20052;-65
2022/09/29 02:55:03;;;;;;;8.57;4.65;;;;;;;;;;5041757;28;20111;-65
2022/09/29 02:57:47;;;;;;;9.63;4.35;;;;;;;;;;5030472;28;20599;-66
2022/09/29 03:00:15;;;;;;;7.35;4.50;;;;;;;;;;5047751;28;20037;-65
2022/09/29 03:02:43;;;;;;;9.02;4.38;;;;;;;;;;5047786;28;20040;-65
2022/09/29 03:05:11;;;;;;;7.75;4.38;;;;;;;;;;5029971;28;20379;-65
2022/09/29 03:07:37;;;;;;;10.13;4.60;;;;;;;;;;5048312;28;20037;-66
2022/09/29 03:10:05;;;;;;;8.52;4.03;;;;;;;;;;5047940;28;20041;-65
2022/09/29 03:12:30;;;;;;;12.43;4.40;;;;;;;;;;5029603;28;20041;-65
2022/09/29 03:14:55;;;;;;;10.50;3.83;;;;;;;;;;5047992;28;20036;-65
2022/09/29 03:17:21;;;;;;;6.60;4.13;;;;;;;;;;5029568;28;20025;-65
2022/09/29 03:19:46;;;;;;;9.95;4.43;;;;;;;;;;5048085;28;20028;-65
2022/09/29 03:22:12;;;;;;;10.27;4.35;;;;;;;;;;5029940;28;20037;-66
2022/09/29 03:24:37;;;;;;;10.18;5.15;;;;;;;;;;5046991;28;20047;-65
2022/09/29 03:27:03;;;;;;;11.70;4.55;;;;;;;;;;5047714;28;20029;-65
2022/09/29 03:29:28;;;;;;;19.60;5.05;;;;;;;;;;5051688;28;20527;-65
2022/09/29 03:31:54;;;;;;;8.68;4.30;;;;;;;;;;5029328;28;20029;-65
2022/09/29 03:34:19;;;;;;;8.40;4.85;;;;;;;;;;5047773;28;20433;-65
2022/09/29 03:36:44;;;;;;;8.73;4.40;;;;;;;;;;5047161;28;20072;-65
2022/09/29 03:39:09;;;;;;;10.63;4.53;;;;;;;;;;5041086;28;20037;-65
2022/09/29 03:41:35;;;;;;;12.95;4.55;;;;;;;;;;5027606;28;20072;-65
2022/09/29 03:44:00;;;;;;;12.02;4.53;;;;;;;;;;5027001;28;20120;-65
2022/09/29 03:46:26;;;;;;;7.75;4.65;;;;;;;;;;5009626;28;20088;-65
2022/09/29 03:48:51;;;;;;;8.30;4.60;;;;;;;;;;5027501;28;20041;-65
2022/09/29 03:51:16;;;;;;;7.78;4.03;;;;;;;;;;5009102;28;20060;-65
2022/09/29 03:53:42;;;;;;;11.10;4.57;;;;;;;;;;5027930;28;20552;-65
2022/09/29 03:56:07;;;;;;;9.55;4.40;;;;;;;;;;5037336;28;20601;-65
2022/09/29 03:58:33;;;;;;;12.15;4.88;;;;;;;;;;5047246;28;20039;-65
2022/09/29 04:01:00;;;;;;;11.00;4.57;;;;;;;;;;5046924;28;20041;-65
2022/09/29 04:03:25;;;;;;;7.78;4.53;;;;;;;;;;5047222;28;20033;-65
2022/09/29 04:05:50;;;;;;;10.55;5.03;;;;;;;;;;5047171;28;20028;-65
2022/09/29 04:08:16;;;;;;;14.60;4.90;;;;;;;;;;5047543;28;20371;-65
2022/09/29 04:10:41;;;;;;;8.35;4.22;;;;;;;;;;5033291;28;20045;-65
2022/09/29 04:13:07;;;;;;;8.25;4.57;;;;;;;;;;5047373;28;20464;-66
2022/09/29 04:15:32;;;;;;;9.68;4.22;;;;;;;;;;5046672;28;20037;-65
2022/09/29 04:17:58;;;;;;;11.05;4.93;;;;;;;;;;5029986;28;20091;-65
2022/09/29 04:20:24;;;;;;;8.00;4.32;;;;;;;;;;5046853;28;20541;-65
2022/09/29 04:22:49;;;;;;;9.13;4.65;;;;;;;;;;5047178;28;20064;-65
2022/09/29 04:25:15;;;;;;;11.50;4.63;;;;;;;;;;5046215;28;20045;-66
2022/09/29 04:27:40;;;;;;;7.68;4.10;;;;;;;;;;5047170;28;20033;-65
2022/09/29 04:30:06;;;;;;;7.38;4.07;;;;;;;;;;5046035;28;20422;-65
2022/09/29 04:32:32;;;;;;;10.00;4.47;;;;;;;;;;5051118;28;20028;-66
2022/09/29 04:34:57;;;;;;;11.80;4.40;;;;;;;;;;5046925;28;20086;-66
2022/09/29 04:37:23;;;;;;;11.18;4.32;;;;;;;;;;5046157;28;20030;-65
2022/09/29 04:39:48;;;;;;;10.60;4.05;;;;;;;;;;5046259;28;20410;-66
2022/09/29 04:42:14;;;;;;;8.70;4.82;;;;;;;;;;5046844;28;20036;-65
2022/09/29 04:44:39;;;;;;;10.40;3.97;;;;;;;;;;5048653;28;20109;-65
2022/09/29 04:47:04;;;;;;;8.38;4.38;;;;;;;;;;5046901;28;20785;-65
2022/09/29 04:49:30;;;;;;;11.27;4.35;;;;;;;;;;5028359;28;20029;-65
2022/09/29 04:51:55;;;;;;;11.63;5.22;;;;;;;;;;5045764;28;20115;-65
2022/09/29 04:54:20;;;;;;;11.65;4.75;;;;;;;;;;5046275;28;20032;-65
2022/09/29 04:56:49;;;;;;;9.75;4.20;;;;;;;;;;5029045;28;20025;-65
2022/09/29 04:59:16;;;;;;;9.82;4.70;;;;;;;;;;5066857;28;20123;-65
2022/09/29 05:01:42;;;;;;;11.18;4.95;;;;;;;;;;5048232;28;20079;-66
2022/09/29 05:04:08;;;;;;;8.18;3.88;;;;;;;;;;5066027;28;20056;-65
2022/09/29 05:06:38;;;;;;;11.07;5.03;;;;;;;;;;5061855;28;20033;-65
2022/09/29 05:09:06;;;;;;;10.43;4.70;;;;;;;;;;5066250;28;20033;-65
2022/09/29 05:11:32;;;;;;;8.98;3.85;;;;;;;;;;5065782;28;20124;-65
2022/09/29 05:13:57;;;;;;;10.10;4.53;;;;;;;;;;5066395;28;20123;-65
2022/09/29 05:16:23;;;;;;;8.60;4.30;;;;;;;;;;5066113;28;20059;-65
2022/09/29 05:18:49;;;;;;;7.68;4.45;;;;;;;;;;5064978;28;20033;-65
2022/09/29 05:21:14;;;;;;;9.82;4.90;;;;;;;;;;5059471;28;20403;-65
2022/09/29 05:23:41;;;;;;;11.85;4.25;;;;;;;;;;5029542;28;20152;-65
2022/09/29 05:26:07;;;;;;;12.30;5.13;;;;;;;;;;5026095;28;20411;-65
2022/09/29 05:28:33;;;;;;;13.73;5.00;;;;;;;;;;5026637;28;20514;-66
2022/09/29 05:31:07;;;;;;;9.02;5.05;;;;;;;;;;5034349;28;20036;-65
2022/09/29 05:33:34;;;;;;;15.20;4.75;;;;;;;;;;5065794;28;20590;-65
2022/09/29 05:36:00;;;;;;;8.68;4.30;;;;;;;;;;5047498;28;20033;-65
2022/09/29 05:38:25;;;;;;;9.43;5.18;;;;;;;;;;5065852;28;20158;-65
2022/09/29 05:40:51;;;;;;;9.38;4.85;;;;;;;;;;5046068;28;20482;-65
2022/09/29 05:43:17;;;;;;;9.88;5.15;;;;;;;;;;5045380;28;20414;-65
2022/09/29 05:45:43;;;;;;;9.80;4.38;;;;;;;;;;5045468;28;20129;-65
2022/09/29 05:48:08;;;;;;;8.98;4.45;;;;;;;;;;5044739;28;20503;-65
2022/09/29 05:50:40;;;;;;;9.93;4.80;;;;;;;;;;5044152;28;20024;-66
2022/09/29 05:53:06;;;;;;;13.98;5.60;;;;;;;;;;5027943;28;20074;-66
2022/09/29 05:55:32;;;;;;;14.80;5.38;;;;;;;;;;5043774;28;20044;-65
2022/09/29 05:57:57;;;;;;;11.52;4.78;;;;;;;;;;5044091;28;20029;-65
2022/09/29 06:00:22;;;;;;;10.52;4.55;;;;;;;;;;5043447;28;20036;-66
2022/09/29 06:02:48;;;;;;;13.70;5.30;;;;;;;;;;5044887;28;20036;-65
2022/09/29 06:05:13;;;;;;;9.82;4.38;;;;;;;;;;5043575;28;20112;-65
2022/09/29 06:07:38;;;;;;;11.40;5.35;;;;;;;;;;5035807;28;20032;-65
2022/09/29 06:10:04;;;;;;;9.10;4.63;;;;;;;;;;5027364;28;20051;-65
2022/09/29 06:12:36;;;;;;;11.07;5.20;;;;;;;;;;5032500;28;20407;-65
2022/09/29 06:15:04;;;;;;;8.32;4.72;;;;;;;;;;5031536;28;20498;-65
2022/09/29 06:17:30;;;;;;;11.40;4.80;;;;;;;;;;5036137;28;20059;-65
2022/09/29 06:19:55;;;;;;;7.25;4.82;;;;;;;;;;5048036;28;20053;-65
2022/09/29 06:22:20;;;;;;;9.77;4.78;;;;;;;;;;5047846;28;20040;-65
2022/09/29 06:24:46;;;;;;;19.38;5.30;;;;;;;;;;5048136;28;20475;-66
2022/09/29 06:27:11;;;;;;;10.73;5.32;;;;;;;;;;5048906;28;20055;-66
2022/09/29 06:29:36;;;;;;;11.48;5.60;;;;;;;;;;5030925;28;20037;-65
2022/09/29 06:32:02;;;;;;;13.10;5.90;;;;;;;;;;5048824;28;20561;-66
2022/09/29 06:34:27;;;;;;;9.48;4.88;;;;;;;;;;5048645;28;20564;-65
2022/09/29 06:39:37;;;;;;;11.02;5.35;;;;;;;;;;5045926;28;20043;-66
2022/09/29 06:42:02;;;;;;;12.82;4.88;;;;;;;;;;5046003;28;20033;-65
2022/09/29 06:44:29;;;;;;;11.80;4.45;;;;;;;;;;5048667;28;20401;-66
2022/09/29 06:46:55;;;;;;;12.02;4.13;;;;;;;;;;5049140;28;20132;-66
2022/09/29 06:49:21;;;;;;;11.15;4.65;;;;;;;;;;5046630;28;20119;-66
2022/09/29 06:51:47;;;;;;;12.55;4.35;;;;;;;;;;5026887;28;20091;-66
2022/09/29 06:54:15;;;;;;;11.30;4.53;;;;;;;;;;5043076;28;20036;-66
2022/09/29 06:56:41;;;;;;;7.07;4.10;;;;;;;;;;5049104;28;20040;-66
2022/09/29 06:59:07;;;;;;;7.60;5.15;;;;;;;;;;5030494;28;20032;-66
2022/09/29 07:01:32;;;;;;;10.63;4.10;;;;;;;;;;5046885;28;20037;-66
2022/09/29 07:03:59;;;;;;;9.63;4.35;;;;;;;;;;5048842;28;20087;-66
2022/09/29 07:06:25;;;;;;;9.73;4.55;;;;;;;;;;5029851;28;20041;-66
2022/09/29 07:08:58;;;;;;;10.98;4.97;;;;;;;;;;5047854;28;20120;-66
2022/09/29 07:11:23;;;;;;;9.10;4.85;;;;;;;;;;5047012;28;20572;-66
2022/09/29 07:13:50;;;;;;;9.82;4.97;;;;;;;;;;5030320;28;20036;-66
2022/09/29 07:16:15;;;;;;;16.85;5.00;;;;;;;;;;5046115;28;20041;-66
2022/09/29 07:18:42;;;;;;;8.55;4.75;;;;;;;;;;5036113;28;20128;-66
2022/09/29 07:21:15;;;;;;;7.45;4.68;;;;;;;;;;5022392;28;20582;-66
2022/09/29 07:23:41;;;;;;;9.32;4.32;;;;;;;;;;5028220;28;20112;-66
2022/09/29 07:26:06;;;;;;;12.15;4.35;;;;;;;;;;5045332;28;20158;-66
2022/09/29 07:28:33;;;;;;;15.55;5.00;;;;;;;;;;5039459;28;20033;-66
2022/09/29 07:31:04;;;;;;;9.82;4.43;;;;;;;;;;5045950;28;20033;-66
2022/09/29 07:33:31;;;;;;;10.75;5.22;;;;;;;;;;5039743;28;20094;-66
2022/09/29 07:35:59;;;;;;;11.88;4.47;;;;;;;;;;5051400;28;20052;-66
2022/09/29 07:38:24;;;;;;;9.35;4.38;;;;;;;;;;5065075;28;20056;-66
2022/09/29 07:40:50;;;;;;;12.18;4.45;;;;;;;;;;5027232;28;20059;-66
2022/09/29 07:43:15;;;;;;;7.82;4.25;;;;;;;;;;5047738;28;20060;-66
2022/09/29 07:45:49;;;;;;;8.10;4.35;;;;;;;;;;5049983;28;20074;-66
2022/09/29 07:48:14;;;;;;;9.18;4.10;;;;;;;;;;5028491;28;20041;-66
2022/09/29 07:50:40;;;;;;;9.10;4.10;;;;;;;;;;5024780;28;20095;-66
2022/09/29 07:53:05;;;;;;;8.55;3.90;;;;;;;;;;5000603;28;20059;-66
2022/09/29 07:55:31;;;;;;;11.27;4.55;;;;;;;;;;5020954;28;20153;-66
2022/09/29 07:57:56;;;;;;;7.25;4.13;;;;;;;;;;5040074;28;20043;-66
2022/09/29 08:00:21;;;;;;;9.63;4.95;;;;;;;;;;5046608;28;20514;-66
2022/09/29 08:02:47;;;;;;;7.38;3.97;;;;;;;;;;5046986;28;20079;-66
2022/09/29 08:05:12;;;;;;;8.18;4.53;;;;;;;;;;5029830;28;20025;-66
2022/09/29 08:07:37;;;;;;;8.77;4.65;;;;;;;;;;5046109;28;20053;-66
2022/09/29 08:10:04;;;;;;;7.78;4.15;;;;;;;;;;5047317;28;20033;-66
2022/09/29 08:12:29;;;;;;;8.45;4.38;;;;;;;;;;5046243;28;20045;-66
2022/09/29 08:14:54;;;;;;;7.65;4.32;;;;;;;;;;5029574;28;20106;-66
2022/09/29 08:17:20;;;;;;;11.73;4.90;;;;;;;;;;5046674;28;20075;-66
2022/09/29 08:19:45;;;;;;;7.90;4.13;;;;;;;;;;5046147;28;20538;-66
2022/09/29 08:22:10;;;;;;;11.85;4.68;;;;;;;;;;5046766;28;20063;-66
2022/09/29 08:24:38;;;;;;;6.15;4.07;;;;;;;;;;5045177;28;20037;-66
2022/09/29 08:27:05;;;;;;;10.63;5.13;;;;;;;;;;5043953;28;20039;-66
2022/09/29 08:29:31;;;;;;;11.50;4.80;;;;;;;;;;5047319;28;20064;-66
2022/09/29 08:31:57;;;;;;;11.23;4.88;;;;;;;;;;5047109;28;20037;-66
2022/09/29 08:34:22;;;;;;;8.85;4.18;;;;;;;;;;5046110;28;20519;-66
2022/09/29 08:36:47;;;;;;;8.48;5.28;;;;;;;;;;5045510;28;20507;-66
2022/09/29 08:39:14;;;;;;;13.38;5.18;;;;;;;;;;5046343;28;20136;-66
2022/09/29 08:41:54;;;;;;;9.90;5.40;;;;;;;;;;5043802;28;20037;-66
2022/09/29 08:44:43;;;;;;;7.85;4.88;;;;;;;;;;5045859;28;20482;-66
2022/09/29 08:47:28;;;;;;;13.07;5.28;;;;;;;;;;5028660;28;20049;-66
2022/09/29 08:49:58;;;;;;;9.27;5.32;;;;;;;;;;5045814;28;20045;-66
2022/09/29 08:52:29;;;;;;;13.93;5.43;;;;;;;;;;5046197;28;20779;-66
2022/09/29 08:54:59;;;;;;;17.88;5.15;;;;;;;;;;5045571;28;20025;-66
2022/09/29 08:57:25;;;;;;;11.32;5.20;;;;;;;;;;5046384;28;20425;-66
2022/09/29 08:59:58;;;;;;;13.35;6.15;;;;;;;;;;5047058;28;20041;-66
2022/09/29 09:02:52;;;;;;;9.77;5.03;;;;;;;;;;5037508;28;20498;-66
2022/09/29 09:05:26;;;;;;;7.30;4.75;;;;;;;;;;5039838;28;20072;-66
2022/09/29 09:08:13;;;;;;;10.23;4.90;;;;;;;;;;5039626;28;20063;-66
2022/09/29 09:10:46;;;;;;;9.77;5.18;;;;;;;;;;5046452;28;20394;-66
2022/09/29 09:13:48;;;;;;;9.68;5.28;;;;;;;;;;5028808;28;20037;-66
2022/09/29 09:16:42;;;;;;;15.30;5.15;;;;;;;;;;5046044;28;20037;-66
2022/09/29 09:19:26;;;;;;;8.32;4.80;;;;;;;;;;5027289;28;20029;-66
2022/09/29 09:21:58;;;;;;;;;;;;;;;;;;5046578;28;20095;-66
2022/09/29 09:24:54;;;;;;;10.90;5.22;;;;;;;;;;5046119;28;19921;-66
2022/09/29 09:27:24;;;;;;;10.77;4.75;;;;;;;;;;5045213;28;20437;-66
2022/09/29 09:30:00;;;;;;;8.60;4.97;;;;;;;;;;5044828;28;20060;-66
2022/09/29 09:32:29;;;;;;;11.95;5.10;;;;;;;;;;5045760;28;20025;-66
2022/09/29 09:35:20;;;;;;;13.27;6.35;;;;;;;;;;5046067;28;20471;-66
2022/09/29 09:37:47;;;;;;;10.68;5.35;;;;;;;;;;5030760;28;20661;-66
2022/09/29 09:40:19;;;;;;;10.68;5.53;;;;;;;;;;5046885;28;20136;-66
2022/09/29 09:42:51;;;;;;;11.13;5.38;;;;;;;;;;5049070;28;20029;-66
2022/09/29 09:45:16;;;;;;;13.43;5.68;;;;;;;;;;5048837;28;20030;-66
2022/09/29 09:47:58;;;;;;;10.40;4.55;;;;;;;;;;5039389;28;20025;-66
2022/09/29 09:50:25;;;;;;;10.40;5.15;;;;;;;;;;5049236;28;20686;-65
2022/09/29 09:53:10;;;;;;;8.75;4.97;;;;;;;;;;5061083;28;20082;-66
2022/09/29 09:55:35;;;;;;;12.95;5.60;;;;;;;;;;5050476;28;20043;-66
2022/09/29 09:58:38;;;;;;;8.85;4.90;;;;;;;;;;5049906;28;20024;-66
2022/09/29 10:01:06;;;;;;;8.60;4.45;;;;;;;;;;5054006;28;20029;-66
2022/09/29 10:03:32;;;;;;;11.98;5.18;;;;;;;;;;5050122;28;20028;-66
2022/09/29 10:05:58;;;;;;;8.07;4.60;;;;;;;;;;5068073;28;20708;-65
2022/09/29 10:08:24;;;;;;;13.02;5.05;;;;;;;;;;5052569;28;20021;-65
2022/09/29 10:10:50;;;;;;;7.03;4.20;;;;;;;;;;5040565;28;20022;-66
2022/09/29 10:13:16;;;;;;;6.95;4.22;;;;;;;;;;5051924;28;20037;-65
2022/09/29 10:16:23;;;;;;;9.18;4.70;;;;;;;;;;5042913;28;20109;-66
2022/09/29 10:18:52;;;;;;;8.93;4.63;;;;;;;;;;4986948;28;20113;-65
2022/09/29 10:21:28;;;;;;;10.90;4.10;;;;;;;;;;4986567;28;20676;-66
2022/09/29 10:23:55;;;;;;;10.65;4.13;;;;;;;;;;5021740;28;20030;-66
2022/09/29 10:26:25;;;;;;;8.43;4.30;;;;;;;;;;5048844;28;20687;-65
2022/09/29 10:28:59;;;;;;;7.47;4.28;;;;;;;;;;5049239;28;20075;-66
2022/09/29 10:31:27;;;;;;;8.30;4.30;;;;;;;;;;5044462;28;20049;-66
2022/09/29 10:33:59;;;;;;;11.85;4.22;;;;;;;;;;5027262;28;20080;-66
2022/09/29 10:36:29;;;;;;;8.27;4.28;;;;;;;;;;5028307;28;20460;-65
2022/09/29 10:38:55;;;;;;;7.75;4.07;;;;;;;;;;5014134;28;20121;-66
2022/09/29 10:41:21;;;;;;;6.60;4.18;;;;;;;;;;5047425;28;20108;-65
2022/09/29 10:43:48;;;;;;;9.75;4.72;;;;;;;;;;5045674;28;20540;-65
2022/09/29 10:46:47;;;;;;;9.48;3.90;;;;;;;;;;5028657;28;20037;-65
2022/09/29 10:49:21;;;;;;;11.40;4.15;;;;;;;;;;5046663;28;20167;-66
2022/09/29 10:51:59;;;;;;;8.57;4.15;;;;;;;;;;5039684;28;20526;-65
2022/09/29 10:54:26;;;;;;;9.60;4.70;;;;;;;;;;5035283;28;20502;-66
2022/09/29 10:56:53;;;;;;;6.35;3.70;;;;;;;;;;5050056;28;20033;-66
2022/09/29 10:59:19;;;;;;;6.50;4.18;;;;;;;;;;5047581;28;20049;-66
2022/09/29 11:01:52;;;;;;;9.10;4.93;;;;;;;;;;5048167;28;20045;-66
2022/09/29 11:04:31;;;;;;;8.80;4.15;;;;;;;;;;5028007;28;20040;-66
2022/09/29 11:07:05;;;;;;;6.85;4.25;;;;;;;;;;5033467;28;20116;-65
2022/09/29 11:09:37;;;;;;;6.60;3.85;;;;;;;;;;5026934;28;20048;-65
2022/09/29 11:12:03;;;;;;;7.80;5.13;;;;;;;;;;5026343;28;20557;-66
2022/09/29 11:14:36;;;;;;;7.68;4.20;;;;;;;;;;5022920;28;20053;-66
2022/09/29 11:17:18;;;;;;;8.07;5.17;;;;;;;;;;5047191;28;20028;-66
2022/09/29 11:19:44;;;;;;;10.95;5.38;;;;;;;;;;5046896;28;20037;-66
2022/09/29 11:22:55;;;;;;;7.90;5.13;;;;;;;;;;5046642;28;20029;-65
2022/09/29 11:25:42;;;;;;;8.77;5.03;;;;;;;;;;5030769;28;20091;-66
2022/09/29 11:28:31;;;;;;;9.00;4.90;;;;;;;;;;5029314;28;20033;-66
2022/09/29 11:31:35;;;;;;;7.28;4.43;;;;;;;;;;5046234;28;20064;-66
2022/09/29 11:34:16;;;;;;;9.05;5.32;;;;;;;;;;5015466;28;20087;-66
2022/09/29 11:36:50;;;;;;;8.98;5.70;;;;;;;;;;5052103;28;20128;-66
2022/09/29 11:39:21;;;;;;;8.82;5.10;;;;;;;;;;5027580;28;20137;-66
2022/09/29 11:42:08;;;;;;;5.90;3.92;;;;;;;;;;5042117;28;20047;-66
2022/09/29 11:44:59;;;;;;;5.35;2.92;;;;;;;;;;5028800;28;20041;-66
2022/09/29 11:47:48;;;;;;;4.55;2.30;;;;;;;;;;5026274;28;20033;-66
2022/09/29 11:50:33;;;;;;;4.47;2.88;;;;;;;;;;5027231;28;20017;-65
2022/09/29 11:53:41;;;;;;;5.97;3.00;;;;;;;;;;5027116;28;20041;-65
2022/09/29 11:56:17;;;;;;;6.80;4.25;;;;;;;;;;4997245;28;20038;-68
2022/09/29 11:59:08;;;;;;;6.15;3.80;;;;;;;;;;5023968;28;20461;-66
2022/09/29 12:01:58;;;;;;;8.93;4.10;;;;;;;;;;5024400;28;20038;-65
2022/09/29 12:05:07;;;;;;;5.70;3.60;;;;;;;;;;5027873;28;20627;-65
2022/09/29 12:07:47;;;;;;;6.20;3.22;;;;;;;;;;5041327;28;20036;-65
2022/09/29 12:10:24;;;;;;;11.38;3.78;;;;;;;;;;5044286;28;20109;-65
2022/09/29 12:13:12;;;;;;;7.28;3.72;;;;;;;;;;5042859;28;20052;-66
2022/09/29 12:16:14;;;;;;;6.50;3.78;;;;;;;;;;5036296;28;20124;-65
2022/09/29 12:18:53;;;;;;;5.15;3.30;;;;;;;;;;5040906;28;20143;-66
2022/09/29 12:21:33;;;;;;;5.38;3.40;;;;;;;;;;5024040;28;20044;-65
2022/09/29 12:24:02;;;;;;;6.25;3.75;;;;;;;;;;5044774;28;20430;-65
2022/09/29 12:26:29;;;;;;;6.65;3.88;;;;;;;;;;5045506;28;20033;-66
2022/09/29 12:29:01;;;;;;;10.95;3.88;;;;;;;;;;5047166;28;20546;-66
2022/09/29 12:31:31;;;;;;;5.53;4.03;;;;;;;;;;5046129;28;20463;-66
2022/09/29 12:34:01;;;;;;;4.82;3.63;;;;;;;;;;5028296;28;20021;-66
2022/09/29 12:36:54;;;;;;;6.85;3.90;;;;;;;;;;5028095;28;20057;-65
2022/09/29 12:39:49;;;;;;;7.25;3.65;;;;;;;;;;5045535;28;20528;-65
2022/09/29 12:42:46;;;;;;;6.72;3.47;;;;;;;;;;5022220;28;20124;-65
2022/09/29 12:45:22;;;;;;;8.85;4.13;;;;;;;;;;4999096;28;20518;-65
2022/09/29 12:48:11;;;;;;;7.57;3.40;;;;;;;;;;5025569;28;20179;-65
2022/09/29 12:50:45;;;;;;;4.30;2.72;;;;;;;;;;5025824;28;20048;-65
2022/09/29 12:53:11;;;;;;;4.85;2.90;;;;;;;;;;5025670;28;20327;-66
2022/09/29 12:55:57;;;;;;;4.53;3.00;;;;;;;;;;5025419;28;20444;-65
2022/09/29 12:58:44;;;;;;;7.25;2.80;;;;;;;;;;5006665;28;20125;-65
2022/09/29 13:01:30;;;;;;;4.68;2.92;;;;;;;;;;5027889;28;20052;-66
2022/09/29 13:04:25;;;;;;;4.88;2.92;;;;;;;;;;5035509;28;20041;-66
2022/09/29 13:07:02;;;;;;;5.35;3.28;;;;;;;;;;5026102;28;20141;-65
2022/09/29 13:09:40;;;;;;;5.93;3.70;;;;;;;;;;5064511;28;20420;-65
2022/09/29 13:12:32;;;;;;;5.82;3.53;;;;;;;;;;5063305;28;20083;-65
2022/09/29 13:15:33;;;;;;;6.15;3.08;;;;;;;;;;5067524;28;20028;-65
2022/09/29 13:18:03;;;;;;;5.88;3.42;;;;;;;;;;5007066;28;20543;-67
2022/09/29 13:20:52;;;;;;;5.93;3.30;;;;;;;;;;5059068;28;20428;-66
2022/09/29 13:23:51;;;;;;;8.95;3.50;;;;;;;;;;5061742;28;20028;-65
2022/09/29 13:26:41;;;;;;;4.28;3.20;;;;;;;;;;5031296;28;20123;-65
2022/09/29 13:29:17;;;;;;;4.40;2.85;;;;;;;;;;5049872;28;20441;-65
2022/09/29 13:31:45;;;;;;;5.22;2.72;;;;;;;;;;5048377;28;20506;-65
2022/09/29 13:34:21;;;;;;;4.45;2.45;;;;;;;;;;5048537;28;20033;-66
2022/09/29 13:36:48;;;;;;;2.03;1.80;;;;;;;;;;5030405;28;20060;-65
2022/09/29 13:39:26;;;;;;;6.47;2.42;;;;;;;;;;5046944;28;20059;-66
2022/09/29 13:41:54;;;;;;;2.75;1.33;;;;;;;;;;5048894;28;20036;-66
2022/09/29 13:44:27;;;;;;;2.03;1.23;;;;;;;;;;5031397;28;20021;-65
2022/09/29 13:46:55;;;;;;;1.83;1.50;;;;;;;;;;5047244;28;20083;-66
2022/09/29 13:49:20;;;;;;;2.38;1.20;;;;;;;;;;5048252;28;20063;-65
2022/09/29 13:52:02;;;;;;;2.03;1.30;;;;;;;;;;5048411;28;20482;-65
2022/09/29 13:54:38;;;;;;;2.60;1.30;;;;;;;;;;5028005;28;20060;-65
2022/09/29 13:57:24;;;;;;;2.25;1.50;;;;;;;;;;5029420;28;20106;-65
2022/09/29 13:59:55;;;;;;;1.60;1.50;;;;;;;;;;5042875;28;20085;-65
2022/09/29 14:02:33;;;;;;;4.25;1.38;;;;;;;;;;5047993;28;20040;-66
2022/09/29 14:04:59;;;;;;;3.78;1.38;;;;;;;;;;5046193;28;20555;-65
2022/09/29 14:07:36;;;;;;;2.38;1.45;;;;;;;;;;5047766;28;20029;-66
2022/09/29 14:10:14;;;;;;;2.35;1.67;;;;;;;;;;5047949;28;20044;-66
2022/09/29 14:12:40;;;;;;;3.67;1.30;;;;;;;;;;5047999;28;20045;-66
2022/09/29 14:15:08;;;;;;;2.53;1.35;;;;;;;;;;5048789;28;20047;-65
2022/09/29 14:17:41;;;;;;;1.73;1.20;;;;;;;;;;5048244;28;20029;-66
2022/09/29 14:20:20;;;;;;;3.00;1.30;;;;;;;;;;5048403;28;20024;-66
2022/09/29 14:22:45;;;;;;;2.97;1.40;;;;;;;;;;5030815;28;20136;-66
2022/09/29 14:25:10;;;;;;;2.47;1.25;;;;;;;;;;5028793;28;20119;-66
2022/09/29 14:27:50;;;;;;;1.30;1.20;;;;;;;;;;5048697;28;20561;-66
2022/09/29 14:30:16;;;;;;;3.92;1.50;;;;;;;;;;5048399;28;20037;-65
2022/09/29 14:32:41;;;;;;;3.13;1.30;;;;;;;;;;5048186;28;20678;-66
2022/09/29 14:35:31;;;;;;;2.25;1.52;;;;;;;;;;5030840;28;20024;-66
2022/09/29 14:38:01;;;;;;;5.00;1.65;;;;;;;;;;5048558;28;20479;-66
2022/09/29 14:40:27;;;;;;;5.55;2.10;;;;;;;;;;5048374;28;20040;-66
2022/09/29 14:43:09;;;;;;;3.80;2.28;;;;;;;;;;5029947;28;20110;-65
2022/09/29 14:52:15;;;;;;;3.45;2.00;;;;;;;;;;5034000;28;20047;-65
2022/09/29 14:55:02;;;;;;;2.65;2.00;;;;;;;;;;5009922;28;20033;-66
2022/09/29 14:57:45;;;;;;;2.78;1.70;;;;;;;;;;5028208;28;20033;-66
2022/09/29 15:00:16;;;;;;;3.00;1.93;;;;;;;;;;5050899;28;20657;-66
2022/09/29 15:02:46;;;;;;;2.13;1.77;;;;;;;;;;5067999;28;20032;-65
2022/09/29 15:05:26;;;;;;;2.10;1.60;;;;;;;;;;5068028;28;20127;-65
2022/09/29 15:07:52;;;;;;;2.28;1.70;;;;;;;;;;5067524;28;20428;-66
2022/09/29 15:10:23;;;;;;;1.83;1.58;;;;;;;;;;5049345;28;20040;-66
2022/09/29 15:12:49;;;;;;;1.95;1.40;;;;;;;;;;5067214;28;20048;-66
2022/09/29 15:15:28;;;;;;;2.28;1.40;;;;;;;;;;5067276;28;20148;-66
2022/09/29 15:18:02;;;;;;;3.63;1.65;;;;;;;;;;5058376;28;20170;-66